createdAt,value
2023-03-26T00:04:48.622Z,3.00
2023-03-26T00:09:51.339Z,3.40
2023-03-26T00:14:51.842Z,3.50
2023-03-26T00:19:51.457Z,2.60
2023-03-26T00:24:52.529Z,3.00
2023-03-26T00:29:52.258Z,3.40
2023-03-26T00:34:52.292Z,3.00
2023-03-26T00:39:52.150Z,2.90
2023-03-26T00:44:55.368Z,3.20
2023-03-26T00:49:55.448Z,2.60
2023-03-26T00:54:57.481Z,2.80
2023-03-26T00:59:58.318Z,2.50
2023-03-26T01:05:04.207Z,2.40
2023-03-26T01:10:05.548Z,2.50
2023-03-26T01:15:08.435Z,2.40
2023-03-26T01:20:26.955Z,2.50
2023-03-26T01:25:33.819Z,1.70
2023-03-26T01:30:49.927Z,2.50
2023-03-26T01:35:58.921Z,3.10
2023-03-26T01:41:06.772Z,2.40
2023-03-26T01:46:15.582Z,2.20
2023-03-26T01:51:29.116Z,2.10
2023-03-26T01:56:39.352Z,2.90
2023-03-26T02:01:55.189Z,3.00
2023-03-26T02:07:10.058Z,2.80
2023-03-26T02:12:15.818Z,2.40
2023-03-26T02:17:19.489Z,2.80
2023-03-26T02:22:19.702Z,2.30
2023-03-26T02:27:37.778Z,2.80
2023-03-26T02:32:40.572Z,1.80
2023-03-26T02:37:42.331Z,2.20
2023-03-26T02:42:48.583Z,2.00
2023-03-26T02:47:48.571Z,1.60
2023-03-26T02:53:06.455Z,1.90
2023-03-26T02:58:08.244Z,1.70
2023-03-26T03:03:13.384Z,1.30
2023-03-26T03:08:34.379Z,2.00
2023-03-26T03:13:47.290Z,1.70
2023-03-26T03:18:58.158Z,1.70
2023-03-26T03:24:03.451Z,1.80
2023-03-26T03:29:07.409Z,1.80
2023-03-26T03:34:08.232Z,1.40
2023-03-26T03:39:17.156Z,1.00
2023-03-26T03:44:17.483Z,1.60
2023-03-26T03:49:18.062Z,1.60
2023-03-26T03:54:18.509Z,1.90
2023-03-26T03:59:33.097Z,1.30
2023-03-26T04:04:34.740Z,1.50
2023-03-26T04:09:39.925Z,0.80
2023-03-26T04:14:46.061Z,1.30
2023-03-26T04:19:48.496Z,1.50
2023-03-26T04:24:48.880Z,1.40
2023-03-26T04:29:58.650Z,1.20
2023-03-26T04:35:00.925Z,1.30
2023-03-26T04:40:00.725Z,1.30
2023-03-26T04:45:11.589Z,1.20
2023-03-26T04:50:18.109Z,1.20
2023-03-26T04:55:32.473Z,1.40
2023-03-26T05:00:46.732Z,1.00
2023-03-26T05:05:46.524Z,0.70
2023-03-26T05:10:46.752Z,1.10
2023-03-26T05:15:55.826Z,1.20
2023-03-26T05:21:21.173Z,1.30
2023-03-26T05:26:21.291Z,1.30
2023-03-26T05:31:23.793Z,1.10
2023-03-26T05:36:26.560Z,1.00
2023-03-26T05:41:35.639Z,1.40
2023-03-26T05:46:36.303Z,1.50
2023-03-26T05:51:37.130Z,1.20
2023-03-26T05:56:54.383Z,1.40
2023-03-26T06:02:15.902Z,1.00
2023-03-26T06:07:35.504Z,1.40
2023-03-26T06:12:43.522Z,0.70
2023-03-26T06:17:44.042Z,1.30
2023-03-26T06:23:08.341Z,1.00
2023-03-26T06:28:39.387Z,1.20
2023-03-26T06:34:05.670Z,1.10
2023-03-26T06:39:10.492Z,1.10
2023-03-26T06:44:31.216Z,1.20
2023-03-26T06:49:49.596Z,1.40
2023-03-26T06:55:02.229Z,1.40
2023-03-26T07:00:22.668Z,1.60
2023-03-26T07:05:42.467Z,1.20
2023-03-26T07:11:04.201Z,1.40
2023-03-26T07:16:22.761Z,1.10
2023-03-26T07:21:46.882Z,1.30
2023-03-26T07:27:39.928Z,1.20
2023-03-26T07:32:53.325Z,1.30
2023-03-26T07:38:45.572Z,1.30
2023-03-26T07:44:40.370Z,1.60
2023-03-26T07:49:59.799Z,1.20
2023-03-26T07:55:48.859Z,1.40
2023-03-26T08:01:16.621Z,1.70
2023-03-26T08:06:29.810Z,1.40
2023-03-26T08:12:20.535Z,1.10
2023-03-26T08:17:30.652Z,1.80
2023-03-26T08:22:37.640Z,1.60
2023-03-26T08:27:49.974Z,1.50
2023-03-26T08:33:02.499Z,1.50
2023-03-26T08:38:04.839Z,1.50
2023-03-26T08:43:55.111Z,1.10
2023-03-26T08:49:43.047Z,1.10
2023-03-26T08:55:34.570Z,1.70
2023-03-26T09:01:12.061Z,1.50
2023-03-26T09:07:23.617Z,1.20
2023-03-26T09:13:04.729Z,1.30
2023-03-26T09:19:09.464Z,1.70
2023-03-26T09:25:04.069Z,1.30
2023-03-26T09:30:53.847Z,1.40
2023-03-26T09:36:33.980Z,1.60
2023-03-26T09:42:06.116Z,1.90
2023-03-26T09:47:38.921Z,2.40
2023-03-26T09:53:05.004Z,2.60
2023-03-26T09:58:41.745Z,1.60
2023-03-26T10:04:24.055Z,2.60
2023-03-26T10:09:45.003Z,1.90
2023-03-26T10:14:52.995Z,2.60
2023-03-26T10:20:13.652Z,2.10
2023-03-26T10:25:50.654Z,0.80
2023-03-26T10:31:35.052Z,0.40
2023-03-26T10:36:42.782Z,0.70
2023-03-26T10:41:56.182Z,0.60
2023-03-26T10:47:16.200Z,0.60
2023-03-26T10:52:20.962Z,1.00
2023-03-26T10:57:37.180Z,0.70
2023-03-26T11:02:49.180Z,0.20
2023-03-26T11:07:57.313Z,0.20
2023-03-26T11:13:05.589Z,0.30
2023-03-26T11:18:17.485Z,0.20
2023-03-26T11:23:37.937Z,0.30
2023-03-26T11:29:32.356Z,0.60
2023-03-26T11:34:40.252Z,0.60
2023-03-26T11:39:51.278Z,0.60
2023-03-26T11:44:57.740Z,0.90
2023-03-26T11:50:02.118Z,0.80
2023-03-26T11:55:01.579Z,0.50
2023-03-26T12:00:16.886Z,0.50
2023-03-26T12:05:35.327Z,0.20
2023-03-26T12:11:01.645Z,0.20
2023-03-26T12:16:11.821Z,0.20
2023-03-26T12:21:15.202Z,0.50
2023-03-26T12:26:41.523Z,0.30
2023-03-26T12:31:56.209Z,0.70
2023-03-26T12:37:00.251Z,0.80
2023-03-26T12:44:43.297Z,0.40
2023-03-26T12:47:59.339Z,0.10
2023-03-26T12:53:15.172Z,0.20
2023-03-26T12:58:38.530Z,0.20
2023-03-26T13:04:04.392Z,0.20
2023-03-26T13:10:05.412Z,0.30
2023-03-26T13:15:33.856Z,0.30
2023-03-26T13:20:50.484Z,0.20
2023-03-26T13:26:03.190Z,0.20
2023-03-26T13:31:18.289Z,0.20
2023-03-26T13:36:31.194Z,0.30
2023-03-26T13:41:50.643Z,0.20
2023-03-26T13:46:59.927Z,0.30
2023-03-26T13:52:06.137Z,0.20
2023-03-26T13:57:20.483Z,0.20
2023-03-26T14:02:38.374Z,0.50
2023-03-26T14:07:49.111Z,0.30
2023-03-26T14:12:57.638Z,0.60
2023-03-26T14:18:09.690Z,0.20
2023-03-26T14:23:45.549Z,0.30
2023-03-26T14:29:32.205Z,0.50
2023-03-26T14:34:51.977Z,0.40
2023-03-26T14:40:52.563Z,0.20
2023-03-26T14:46:33.198Z,0.10
2023-03-26T14:51:57.006Z,0.10
2023-03-26T14:57:29.100Z,0.40
2023-03-26T15:03:11.590Z,0.40
2023-03-26T15:09:05.700Z,0.20
2023-03-26T15:14:59.283Z,0.30
2023-03-26T15:20:46.062Z,0.40
2023-03-26T15:26:41.880Z,0.20
2023-03-26T15:32:33.815Z,0.30
2023-03-26T15:38:18.305Z,0.40
2023-03-26T15:43:21.381Z,0.50
2023-03-26T15:54:32.714Z,0.10
2023-03-26T15:59:51.388Z,0.20
2023-03-26T16:04:57.669Z,0.20
2023-03-26T16:10:19.122Z,0.10
2023-03-26T16:15:40.715Z,0.10
2023-03-26T16:20:55.494Z,0.20
2023-03-26T16:26:18.306Z,0.10
2023-03-26T16:31:38.120Z,0.30
2023-03-26T16:36:43.938Z,0.30
2023-03-26T16:42:06.181Z,0.60
2023-03-26T16:47:21.992Z,0.20
2023-03-26T16:52:37.034Z,0.40
2023-03-26T16:57:49.639Z,0.40
2023-03-26T17:03:08.605Z,0.40
2023-03-26T17:08:36.352Z,0.20
2023-03-26T17:13:51.107Z,0.60
2023-03-26T17:19:05.537Z,0.10
2023-03-26T17:24:37.704Z,0.20
2023-03-26T17:30:36.545Z,0.10
2023-03-26T17:35:53.305Z,0.20
2023-03-26T17:41:01.427Z,0.30
2023-03-26T17:46:04.159Z,0.40
2023-03-26T17:51:24.889Z,0.20
2023-03-26T17:56:33.602Z,0.30
2023-03-26T18:01:40.275Z,0.30
2023-03-26T18:06:58.417Z,0.40
2023-03-26T18:12:32.715Z,0.40
2023-03-26T18:18:01.123Z,0.30
2023-03-26T18:23:00.652Z,0.60
2023-03-26T18:28:02.892Z,0.70
2023-03-26T18:33:16.757Z,0.70
2023-03-26T18:38:36.922Z,0.80
2023-03-26T18:43:43.829Z,0.70
2023-03-26T18:48:45.446Z,0.70
2023-03-26T18:53:53.630Z,0.50
2023-03-26T18:59:00.113Z,0.60
2023-03-26T19:04:04.245Z,0.60
2023-03-26T19:09:13.541Z,0.90
2023-03-26T19:14:22.401Z,0.60
2023-03-26T19:19:27.886Z,0.80
2023-03-26T19:24:28.802Z,0.80
2023-03-26T19:29:36.248Z,1.40
2023-03-26T19:34:42.397Z,1.00
2023-03-26T19:39:46.696Z,1.10
2023-03-26T19:44:47.768Z,1.30
2023-03-26T19:49:57.785Z,1.70
2023-03-26T19:55:04.464Z,1.90
2023-03-26T20:00:13.347Z,2.00
2023-03-26T20:05:24.285Z,2.20
2023-03-26T20:10:23.889Z,2.70
2023-03-26T20:15:28.686Z,2.80
2023-03-26T20:20:34.827Z,3.30
2023-03-26T20:25:49.856Z,3.10
2023-03-26T20:30:56.989Z,3.00
2023-03-26T20:35:59.536Z,3.80
2023-03-26T20:41:00.539Z,3.90
2023-03-26T20:46:01.825Z,3.50
2023-03-26T20:51:01.980Z,3.70
2023-03-26T20:56:02.048Z,3.90
2023-03-26T21:01:08.889Z,3.60
2023-03-26T21:06:13.494Z,4.30
2023-03-26T21:11:28.010Z,4.20
2023-03-26T21:16:29.662Z,4.40
2023-03-26T21:21:48.674Z,3.90
2023-03-26T21:27:00.126Z,3.50
2023-03-26T21:32:01.861Z,4.80
2023-03-26T21:37:07.266Z,4.80
2023-03-26T21:42:09.037Z,5.90
2023-03-26T21:47:14.522Z,6.40
2023-03-26T21:52:17.143Z,5.30
2023-03-26T21:57:37.591Z,4.30
2023-03-26T22:02:51.221Z,5.20
2023-03-26T22:08:00.227Z,4.40
2023-03-26T22:13:00.244Z,2.60
2023-03-26T22:18:03.814Z,4.80
2023-03-26T22:23:03.417Z,3.90
2023-03-26T22:28:04.636Z,5.40
2023-03-26T22:33:04.504Z,4.90
2023-03-26T22:38:04.279Z,4.30
2023-03-26T22:43:03.474Z,4.70
2023-03-26T22:48:04.648Z,3.90
2023-03-26T22:53:05.078Z,4.30
2023-03-26T22:58:04.127Z,3.90
2023-03-26T23:03:04.737Z,3.70
2023-03-26T23:08:03.818Z,3.70
2023-03-26T23:13:02.863Z,4.20
2023-03-26T23:18:07.166Z,3.10
2023-03-26T23:23:09.113Z,2.90
2023-03-26T23:28:08.417Z,3.60
2023-03-26T23:33:09.042Z,3.80
2023-03-26T23:38:08.636Z,3.30
2023-03-26T23:43:07.357Z,3.40
2023-03-26T23:48:11.190Z,2.40
2023-03-26T23:53:11.839Z,3.80
2023-03-26T23:58:10.808Z,3.30
